• Join FlightAware (Why Join?)
  • Login
  • US Flag 
02:42PM EST


 

Airport Tracker/Info


-or-


 

Live Flight TrackerFlight Track Log ✈ CTL61 ✈ 24-Apr-2013 ✈ KCRW - KOSU

Flight Track Log - Related Links

Times and Time Zones

All times are in EDT time to prevent confusion due to time zone crossing. See the CTL61 flight status page for this flight to view local times or setup timezone preferences in your user account.

Time Position Orientation Groundspeed Altitude Reporting Facility
EDT Latitude Longitude Course Direction KTS MPH feet Rate Location/Type
11:56PM 38.4800 -81.7025 329° Northwest 106 122 6,000  Level Indianapolis Center
11:57PM 38.5133 -81.7303 327° Northwest 132 152 6,000  Level Indianapolis Center
11:58PM 38.5483 -81.7597 327° Northwest 146 168 6,100  Climbing Indianapolis Center
11:59PM 38.5770 -81.7624 327° Northwest  Level FlightAware Approximate
11:59PM 38.5822 -81.7894 326° Northwest 147 169 6,000  Level Indianapolis Center
12:00AM 38.6122 -81.7923 327° Northwest  Level FlightAware Approximate
12:00AM 38.6147 -81.8203 323° Northwest 146 168 6,000  Level Indianapolis Center
12:01AM 38.6489 -81.8492 327° Northwest 146 168 5,900 -60 Descending Indianapolis Center
12:02AM 38.6892 -81.8842 326° Northwest 146 168 5,900  Level Indianapolis Center
12:03AM 38.7236 -81.9119 328° Northwest 144 166 6,000  Climbing Indianapolis Center
12:04AM 38.7575 -81.9400 327° Northwest 144 166 6,000  Level Indianapolis Center
12:05AM 38.7919 -81.9681 328° Northwest 144 166 6,000  Level Indianapolis Center
12:06AM 38.8264 -81.9961 328° Northwest 145 167 6,000  Level Indianapolis Center
12:07AM 38.8614 -82.0253 327° Northwest 148 170 6,000  Level Indianapolis Center
12:08AM 38.8958 -82.0553 326° Northwest 149 171 6,000  Level Indianapolis Center
12:09AM 38.9303 -82.0839 327° Northwest 149 171 6,000  Level Indianapolis Center
12:10AM 38.9656 -82.1125 328° Northwest 149 171 6,000  Level Indianapolis Center
12:11AM 38.9986 -82.1417 326° Northwest 145 167 6,000  Level Indianapolis Center
12:12AM 39.0336 -82.1703 328° Northwest 148 170 6,000  Level Indianapolis Center
12:13AM 39.0689 -82.1975 329° Northwest 148 170 6,000 -300 Level Indianapolis Center
12:14AM 39.1067 -82.2239 332° Northwest 153 176 5,500 -600 Descending Indianapolis Center
12:15AM 39.1453 -82.2569 326° Northwest 166 191 4,900 -720 Descending Indianapolis Center
12:16AM 39.1853 -82.2894 328° Northwest 170 196 4,100 -480 Descending Indianapolis Center
12:17AM 39.2231 -82.3222 326° Northwest 165 190 4,000 -60 Descending Indianapolis Center
12:18AM 39.2578 -82.3503 328° Northwest 152 175 4,000  Level Indianapolis Center
12:19AM 39.2919 -82.3792 327° Northwest 147 169 4,000  Level Indianapolis Center
12:20AM 39.3269 -82.4078 328° Northwest 148 170 4,000  Level Indianapolis Center
12:21AM 39.3683 -82.4414 328° Northwest 145 167 4,000  Level Indianapolis Center
12:22AM 39.4025 -82.4711 326° Northwest 147 169 4,000  Level Indianapolis Center
12:23AM 39.4375 -82.5003 327° Northwest 148 170 4,000 -60 Level Indianapolis Center
12:24AM 39.4769 -82.5347 326° Northwest 151 174 3,900  Descending Indianapolis Center
12:25AM 39.5072 -82.5581 329° Northwest 147 169 4,000  Climbing Indianapolis Center
12:26AM 39.5419 -82.5869 327° Northwest 146 168 4,000  Level Indianapolis Center
12:27AM 39.5764 -82.6164 327° Northwest 147 169 4,000  Level Indianapolis Center
12:28AM 39.6111 -82.6453 327° Northwest 147 169 4,000  Level Indianapolis Center
12:29AM 39.6403 -82.6803 317° Northwest 144 166 4,000  Level Indianapolis Center
12:30AM 39.6686 -82.7161 316° Northwest 142 163 4,000  Level Indianapolis Center
12:31AM 39.6969 -82.7531 315° West 142 163 4,000 -60 Level Indianapolis Center
12:32AM 39.7275 -82.7978 312° West 142 163 3,900 -60 Descending Indianapolis Center
12:33AM 39.7525 -82.8331 313° West 142 163 3,900  Level Indianapolis Center
12:34AM 39.7792 -82.8686 314° West 142 163 3,900  Level Indianapolis Center
12:35AM 39.8056 -82.9039 314° West 142 163 4,000 -120 Climbing Indianapolis Center
12:36AM 39.8328 -82.9417 313° West 142 163 3,700 -300 Descending Indianapolis Center
12:37AM 39.8736 -82.9611 340° North 151 174 3,400 -360 Descending Indianapolis Center
12:38AM 39.9131 -82.9850 335° Northwest 154 177 3,000 -360 Descending Indianapolis Center
12:39AM 39.9517 -83.0067 337° Northwest 153 176 2,700 -180 Descending Indianapolis Center
12:40AM 39.9892 -83.0264 338° Northwest 148 170 2,700 -240 Level Indianapolis Center
12:41AM 40.0258 -83.0306 355° North 140 161 2,300 -600 Descending Indianapolis Center
12:42AM 40.0628 -83.0303 360° North 135 155 1,600 -600 Descending Indianapolis Center
12:43AM 40.0783 -83.0514 314° West 112 129 1,200 -420 Descending Indianapolis Center